sensor_id;sensor_type;location;lat;lon;timestamp;P1;durP1;ratioP1;P2;durP2;ratioP2
44143;SDS011;68165;51.920;4.492;2023-04-03T00:00:07;5.53;;;1.23;;
44143;SDS011;68165;51.920;4.492;2023-04-03T00:02:33;4.17;;;1.27;;
44143;SDS011;68165;51.920;4.492;2023-04-03T00:04:59;4.53;;;1.10;;
44143;SDS011;68165;51.920;4.492;2023-04-03T00:07:24;4.37;;;1.20;;
44143;SDS011;68165;51.920;4.492;2023-04-03T00:09:50;6.47;;;1.17;;
44143;SDS011;68165;51.920;4.492;2023-04-03T00:12:15;5.00;;;1.40;;
44143;SDS011;68165;51.920;4.492;2023-04-03T00:14:41;5.95;;;1.20;;
44143;SDS011;68165;51.920;4.492;2023-04-03T00:17:07;3.28;;;1.08;;
44143;SDS011;68165;51.920;4.492;2023-04-03T00:19:36;3.90;;;1.40;;
44143;SDS011;68165;51.920;4.492;2023-04-03T00:22:01;3.47;;;1.17;;
44143;SDS011;68165;51.920;4.492;2023-04-03T00:24:27;3.67;;;1.30;;
44143;SDS011;68165;51.920;4.492;2023-04-03T00:26:52;9.13;;;1.40;;
44143;SDS011;68165;51.920;4.492;2023-04-03T00:29:17;5.60;;;1.50;;
44143;SDS011;68165;51.920;4.492;2023-04-03T00:31:43;4.03;;;1.15;;
44143;SDS011;68165;51.920;4.492;2023-04-03T00:34:08;4.80;;;1.35;;
44143;SDS011;68165;51.920;4.492;2023-04-03T00:36:34;4.78;;;1.20;;
44143;SDS011;68165;51.920;4.492;2023-04-03T00:38:59;4.43;;;1.47;;
44143;SDS011;68165;51.920;4.492;2023-04-03T00:41:26;4.10;;;1.13;;
44143;SDS011;68165;51.920;4.492;2023-04-03T00:43:52;4.13;;;1.23;;
44143;SDS011;68165;51.920;4.492;2023-04-03T00:46:20;2.92;;;1.00;;
44143;SDS011;68165;51.920;4.492;2023-04-03T00:48:46;3.87;;;1.27;;
44143;SDS011;68165;51.920;4.492;2023-04-03T00:51:13;3.67;;;1.25;;
44143;SDS011;68165;51.920;4.492;2023-04-03T00:53:47;4.55;;;1.40;;
44143;SDS011;68165;51.920;4.492;2023-04-03T00:56:18;3.30;;;1.20;;
44143;SDS011;68165;51.920;4.492;2023-04-03T00:58:49;3.85;;;1.38;;
44143;SDS011;68165;51.920;4.492;2023-04-03T01:01:20;4.30;;;1.33;;
44143;SDS011;68165;51.920;4.492;2023-04-03T01:03:48;5.38;;;1.42;;
44143;SDS011;68165;51.920;4.492;2023-04-03T01:06:15;2.83;;;1.13;;
44143;SDS011;68165;51.920;4.492;2023-04-03T01:08:44;6.10;;;1.40;;
44143;SDS011;68165;51.920;4.492;2023-04-03T01:11:12;3.22;;;1.30;;
44143;SDS011;68165;51.920;4.492;2023-04-03T01:13:38;3.33;;;1.30;;
44143;SDS011;68165;51.920;4.492;2023-04-03T01:16:03;7.70;;;1.42;;
44143;SDS011;68165;51.920;4.492;2023-04-03T01:18:30;4.75;;;1.35;;
44143;SDS011;68165;51.920;4.492;2023-04-03T01:23:37;4.63;;;1.48;;
44143;SDS011;68165;51.920;4.492;2023-04-03T01:26:26;4.95;;;1.40;;
44143;SDS011;68165;51.920;4.492;2023-04-03T01:28:53;3.38;;;1.23;;
44143;SDS011;68165;51.920;4.492;2023-04-03T01:34:10;5.40;;;1.50;;
44143;SDS011;68165;51.920;4.492;2023-04-03T01:36:35;4.70;;;1.70;;
44143;SDS011;68165;51.920;4.492;2023-04-03T01:39:01;4.07;;;1.40;;
44143;SDS011;68165;51.920;4.492;2023-04-03T01:41:26;4.40;;;1.30;;
44143;SDS011;68165;51.920;4.492;2023-04-03T01:43:52;3.10;;;1.30;;
44143;SDS011;68165;51.920;4.492;2023-04-03T01:46:18;4.13;;;1.42;;
44143;SDS011;68165;51.920;4.492;2023-04-03T01:48:44;2.93;;;1.20;;
44143;SDS011;68165;51.920;4.492;2023-04-03T01:51:10;5.03;;;1.50;;
44143;SDS011;68165;51.920;4.492;2023-04-03T01:53:36;4.73;;;1.47;;
44143;SDS011;68165;51.920;4.492;2023-04-03T01:56:01;6.57;;;1.70;;
44143;SDS011;68165;51.920;4.492;2023-04-03T01:58:26;5.07;;;1.45;;
44143;SDS011;68165;51.920;4.492;2023-04-03T02:00:52;4.50;;;1.30;;
44143;SDS011;68165;51.920;4.492;2023-04-03T04:19:10;2.35;;;1.10;;
44143;SDS011;68165;51.920;4.492;2023-04-03T04:21:36;2.10;;;1.15;;
44143;SDS011;68165;51.920;4.492;2023-04-03T04:24:01;3.40;;;1.30;;
44143;SDS011;68165;51.920;4.492;2023-04-03T04:26:26;3.05;;;1.48;;
44143;SDS011;68165;51.920;4.492;2023-04-03T04:28:52;2.83;;;1.38;;
44143;SDS011;68165;51.920;4.492;2023-04-03T04:31:17;7.07;;;1.30;;
44143;SDS011;68165;51.920;4.492;2023-04-03T04:33:42;4.68;;;1.70;;
44143;SDS011;68165;51.920;4.492;2023-04-03T04:36:08;4.38;;;1.60;;
44143;SDS011;68165;51.920;4.492;2023-04-03T04:38:33;7.60;;;2.00;;
44143;SDS011;68165;51.920;4.492;2023-04-03T04:40:59;6.95;;;1.73;;
44143;SDS011;68165;51.920;4.492;2023-04-03T04:43:24;4.03;;;1.45;;
44143;SDS011;68165;51.920;4.492;2023-04-03T04:45:59;4.18;;;1.17;;
44143;SDS011;68165;51.920;4.492;2023-04-03T04:48:36;4.65;;;1.08;;
44143;SDS011;68165;51.920;4.492;2023-04-03T04:51:02;3.85;;;1.50;;
44143;SDS011;68165;51.920;4.492;2023-04-03T04:53:28;4.53;;;1.55;;
44143;SDS011;68165;51.920;4.492;2023-04-03T04:55:54;3.45;;;1.30;;
44143;SDS011;68165;51.920;4.492;2023-04-03T04:58:20;3.90;;;1.50;;
44143;SDS011;68165;51.920;4.492;2023-04-03T05:00:45;3.85;;;1.60;;
44143;SDS011;68165;51.920;4.492;2023-04-03T05:03:11;4.03;;;1.45;;
44143;SDS011;68165;51.920;4.492;2023-04-03T05:05:36;7.13;;;1.77;;
44143;SDS011;68165;51.920;4.492;2023-04-03T05:08:02;7.78;;;1.60;;
44143;SDS011;68165;51.920;4.492;2023-04-03T05:10:28;4.00;;;1.40;;
44143;SDS011;68165;51.920;4.492;2023-04-03T05:12:54;3.75;;;1.30;;
44143;SDS011;68165;51.920;4.492;2023-04-03T05:15:20;5.60;;;1.52;;
44143;SDS011;68165;51.920;4.492;2023-04-03T05:17:45;9.00;;;1.60;;
44143;SDS011;68165;51.920;4.492;2023-04-03T05:20:11;7.53;;;1.35;;
44143;SDS011;68165;51.920;4.492;2023-04-03T05:22:36;3.58;;;1.33;;
44143;SDS011;68165;51.920;4.492;2023-04-03T05:25:02;3.00;;;1.30;;
44143;SDS011;68165;51.920;4.492;2023-04-03T05:27:28;5.72;;;2.30;;
44143;SDS011;68165;51.920;4.492;2023-04-03T05:29:54;6.03;;;1.90;;
44143;SDS011;68165;51.920;4.492;2023-04-03T05:32:20;5.13;;;1.73;;
44143;SDS011;68165;51.920;4.492;2023-04-03T05:34:46;3.78;;;1.35;;
44143;SDS011;68165;51.920;4.492;2023-04-03T05:37:12;6.30;;;2.35;;
44143;SDS011;68165;51.920;4.492;2023-04-03T05:39:37;3.97;;;1.60;;
44143;SDS011;68165;51.920;4.492;2023-04-03T05:42:06;3.42;;;1.75;;
44143;SDS011;68165;51.920;4.492;2023-04-03T05:44:32;4.50;;;1.75;;
44143;SDS011;68165;51.920;4.492;2023-04-03T05:46:58;3.90;;;1.65;;
44143;SDS011;68165;51.920;4.492;2023-04-03T05:49:25;9.05;;;2.03;;
44143;SDS011;68165;51.920;4.492;2023-04-03T05:51:50;4.90;;;1.80;;
44143;SDS011;68165;51.920;4.492;2023-04-03T05:54:24;4.50;;;1.80;;
44143;SDS011;68165;51.920;4.492;2023-04-03T05:56:51;6.00;;;1.90;;
44143;SDS011;68165;51.920;4.492;2023-04-03T05:59:17;6.07;;;1.85;;
44143;SDS011;68165;51.920;4.492;2023-04-03T06:01:43;6.80;;;1.95;;
44143;SDS011;68165;51.920;4.492;2023-04-03T06:04:09;5.32;;;1.42;;
44143;SDS011;68165;51.920;4.492;2023-04-03T06:09:24;7.90;;;1.85;;
44143;SDS011;68165;51.920;4.492;2023-04-03T06:11:51;10.00;;;1.67;;
44143;SDS011;68165;51.920;4.492;2023-04-03T06:14:18;4.80;;;1.80;;
44143;SDS011;68165;51.920;4.492;2023-04-03T06:16:43;7.45;;;1.50;;
44143;SDS011;68165;51.920;4.492;2023-04-03T06:19:10;3.25;;;1.48;;
44143;SDS011;68165;51.920;4.492;2023-04-03T06:21:37;4.55;;;1.33;;
44143;SDS011;68165;51.920;4.492;2023-04-03T06:24:03;3.78;;;1.45;;
44143;SDS011;68165;51.920;4.492;2023-04-03T06:26:29;4.93;;;1.58;;
44143;SDS011;68165;51.920;4.492;2023-04-03T06:28:55;6.88;;;1.65;;
44143;SDS011;68165;51.920;4.492;2023-04-03T06:31:21;8.18;;;1.75;;
44143;SDS011;68165;51.920;4.492;2023-04-03T06:33:47;5.60;;;1.75;;
44143;SDS011;68165;51.920;4.492;2023-04-03T06:36:12;4.00;;;1.33;;
44143;SDS011;68165;51.920;4.492;2023-04-03T06:38:38;5.68;;;1.48;;
44143;SDS011;68165;51.920;4.492;2023-04-03T06:41:03;7.85;;;2.13;;
44143;SDS011;68165;51.920;4.492;2023-04-03T06:43:30;6.55;;;1.55;;
44143;SDS011;68165;51.920;4.492;2023-04-03T06:45:57;3.20;;;1.30;;
44143;SDS011;68165;51.920;4.492;2023-04-03T06:48:22;4.88;;;1.63;;
44143;SDS011;68165;51.920;4.492;2023-04-03T06:50:48;7.97;;;1.95;;
44143;SDS011;68165;51.920;4.492;2023-04-03T06:53:13;4.15;;;1.75;;
44143;SDS011;68165;51.920;4.492;2023-04-03T06:55:39;5.43;;;1.75;;
44143;SDS011;68165;51.920;4.492;2023-04-03T06:58:05;5.60;;;1.48;;
44143;SDS011;68165;51.920;4.492;2023-04-03T07:00:30;4.50;;;1.40;;
44143;SDS011;68165;51.920;4.492;2023-04-03T07:02:56;6.05;;;1.70;;
44143;SDS011;68165;51.920;4.492;2023-04-03T07:05:22;3.63;;;1.35;;
44143;SDS011;68165;51.920;4.492;2023-04-03T07:07:48;5.43;;;1.40;;
44143;SDS011;68165;51.920;4.492;2023-04-03T07:10:15;5.38;;;1.60;;
44143;SDS011;68165;51.920;4.492;2023-04-03T07:12:41;10.20;;;2.42;;
44143;SDS011;68165;51.920;4.492;2023-04-03T07:15:07;6.05;;;1.73;;
44143;SDS011;68165;51.920;4.492;2023-04-03T07:17:33;4.65;;;1.67;;
44143;SDS011;68165;51.920;4.492;2023-04-03T07:19:58;6.57;;;1.73;;
44143;SDS011;68165;51.920;4.492;2023-04-03T07:22:24;4.07;;;1.38;;
44143;SDS011;68165;51.920;4.492;2023-04-03T07:24:49;7.95;;;2.05;;
44143;SDS011;68165;51.920;4.492;2023-04-03T07:27:15;4.03;;;1.30;;
44143;SDS011;68165;51.920;4.492;2023-04-03T07:29:42;5.43;;;1.63;;
44143;SDS011;68165;51.920;4.492;2023-04-03T07:32:09;7.13;;;1.52;;
44143;SDS011;68165;51.920;4.492;2023-04-03T07:34:35;5.18;;;1.40;;
44143;SDS011;68165;51.920;4.492;2023-04-03T07:37:00;5.25;;;1.38;;
44143;SDS011;68165;51.920;4.492;2023-04-03T07:39:26;8.82;;;1.63;;
44143;SDS011;68165;51.920;4.492;2023-04-03T07:41:52;4.43;;;1.42;;
44143;SDS011;68165;51.920;4.492;2023-04-03T07:44:20;5.55;;;1.05;;
44143;SDS011;68165;51.920;4.492;2023-04-03T07:46:46;6.85;;;1.40;;
44143;SDS011;68165;51.920;4.492;2023-04-03T07:49:11;4.13;;;1.45;;
44143;SDS011;68165;51.920;4.492;2023-04-03T07:51:37;6.55;;;1.67;;
44143;SDS011;68165;51.920;4.492;2023-04-03T07:54:02;4.28;;;1.45;;
44143;SDS011;68165;51.920;4.492;2023-04-03T07:56:30;4.13;;;1.48;;
44143;SDS011;68165;51.920;4.492;2023-04-03T07:58:56;4.57;;;1.38;;
44143;SDS011;68165;51.920;4.492;2023-04-03T08:01:22;4.20;;;1.50;;
44143;SDS011;68165;51.920;4.492;2023-04-03T08:03:47;4.13;;;1.33;;
44143;SDS011;68165;51.920;4.492;2023-04-03T08:06:12;4.30;;;1.30;;
44143;SDS011;68165;51.920;4.492;2023-04-03T08:08:40;4.90;;;1.20;;
44143;SDS011;68165;51.920;4.492;2023-04-03T08:11:05;5.72;;;1.63;;
44143;SDS011;68165;51.920;4.492;2023-04-03T08:13:31;6.32;;;1.48;;
44143;SDS011;68165;51.920;4.492;2023-04-03T08:15:57;6.93;;;1.77;;
44143;SDS011;68165;51.920;4.492;2023-04-03T08:18:24;7.85;;;2.45;;
44143;SDS011;68165;51.920;4.492;2023-04-03T08:20:51;6.35;;;1.25;;
44143;SDS011;68165;51.920;4.492;2023-04-03T08:23:16;6.20;;;1.20;;
44143;SDS011;68165;51.920;4.492;2023-04-03T08:25:43;6.15;;;1.45;;
44143;SDS011;68165;51.920;4.492;2023-04-03T08:28:09;3.90;;;1.05;;
44143;SDS011;68165;51.920;4.492;2023-04-03T08:30:38;17.58;;;2.10;;
44143;SDS011;68165;51.920;4.492;2023-04-03T08:33:05;7.68;;;1.52;;
44143;SDS011;68165;51.920;4.492;2023-04-03T08:35:31;7.93;;;1.85;;
44143;SDS011;68165;51.920;4.492;2023-04-03T08:37:56;5.45;;;1.50;;
44143;SDS011;68165;51.920;4.492;2023-04-03T08:40:22;6.63;;;1.63;;
44143;SDS011;68165;51.920;4.492;2023-04-03T08:50:30;4.95;;;1.42;;
44143;SDS011;68165;51.920;4.492;2023-04-03T08:53:00;3.30;;;0.95;;
44143;SDS011;68165;51.920;4.492;2023-04-03T08:55:29;5.45;;;1.50;;
44143;SDS011;68165;51.920;4.492;2023-04-03T09:00:28;3.10;;;1.17;;
44143;SDS011;68165;51.920;4.492;2023-04-03T09:02:59;3.55;;;1.35;;
44143;SDS011;68165;51.920;4.492;2023-04-03T09:08:26;6.43;;;1.77;;
44143;SDS011;68165;51.920;4.492;2023-04-03T09:11:04;5.70;;;1.38;;
44143;SDS011;68165;51.920;4.492;2023-04-03T09:19:08;6.43;;;1.75;;
44143;SDS011;68165;51.920;4.492;2023-04-03T09:21:57;4.70;;;1.67;;
44143;SDS011;68165;51.920;4.492;2023-04-03T09:24:25;3.08;;;1.20;;
44143;SDS011;68165;51.920;4.492;2023-04-03T09:26:53;5.63;;;1.38;;
44143;SDS011;68165;51.920;4.492;2023-04-03T09:29:24;4.15;;;1.13;;
44143;SDS011;68165;51.920;4.492;2023-04-03T09:32:02;5.22;;;1.17;;
44143;SDS011;68165;51.920;4.492;2023-04-03T09:34:43;4.90;;;1.20;;
44143;SDS011;68165;51.920;4.492;2023-04-03T09:37:09;6.93;;;1.08;;
44143;SDS011;68165;51.920;4.492;2023-04-03T09:39:50;3.35;;;0.98;;
44143;SDS011;68165;51.920;4.492;2023-04-03T09:45:04;2.22;;;0.70;;
44143;SDS011;68165;51.920;4.492;2023-04-03T09:50:17;2.17;;;0.85;;
44143;SDS011;68165;51.920;4.492;2023-04-03T09:52:49;1.38;;;0.80;;
44143;SDS011;68165;51.920;4.492;2023-04-03T09:55:20;3.05;;;0.68;;
44143;SDS011;68165;51.920;4.492;2023-04-03T09:57:57;1.98;;;0.82;;
44143;SDS011;68165;51.920;4.492;2023-04-03T10:00:26;2.28;;;0.80;;
44143;SDS011;68165;51.920;4.492;2023-04-03T10:02:57;2.88;;;0.60;;
44143;SDS011;68165;51.920;4.492;2023-04-03T10:10:42;3.78;;;0.73;;
44143;SDS011;68165;51.920;4.492;2023-04-03T10:15:47;2.88;;;0.70;;
44143;SDS011;68165;51.920;4.492;2023-04-03T10:21:27;2.63;;;0.70;;
44143;SDS011;68165;51.920;4.492;2023-04-03T10:34:40;3.33;;;1.10;;
44143;SDS011;68165;51.920;4.492;2023-04-03T10:37:22;2.42;;;1.08;;
44143;SDS011;68165;51.920;4.492;2023-04-03T10:42:39;3.45;;;0.50;;
44143;SDS011;68165;51.920;4.492;2023-04-03T11:01:42;4.28;;;1.05;;
44143;SDS011;68165;51.920;4.492;2023-04-03T11:04:11;2.58;;;0.80;;
44143;SDS011;68165;51.920;4.492;2023-04-03T11:06:49;0.95;;;0.47;;
44143;SDS011;68165;51.920;4.492;2023-04-03T11:09:27;1.48;;;0.50;;
44143;SDS011;68165;51.920;4.492;2023-04-03T11:11:58;1.10;;;0.70;;
44143;SDS011;68165;51.920;4.492;2023-04-03T11:14:30;1.73;;;0.60;;
44143;SDS011;68165;51.920;4.492;2023-04-03T11:19:49;2.65;;;0.70;;
44143;SDS011;68165;51.920;4.492;2023-04-03T11:22:23;1.52;;;0.40;;
44143;SDS011;68165;51.920;4.492;2023-04-03T11:25:37;1.27;;;0.77;;
44143;SDS011;68165;51.920;4.492;2023-04-03T11:27:59;2.33;;;0.90;;
44143;SDS011;68165;51.920;4.492;2023-04-03T11:30:49;2.17;;;0.65;;
44143;SDS011;68165;51.920;4.492;2023-04-03T11:36:24;1.33;;;0.65;;
44143;SDS011;68165;51.920;4.492;2023-04-03T11:38:54;1.13;;;0.50;;
44143;SDS011;68165;51.920;4.492;2023-04-03T11:41:28;1.02;;;0.32;;
44143;SDS011;68165;51.920;4.492;2023-04-03T11:44:03;2.72;;;0.40;;
44143;SDS011;68165;51.920;4.492;2023-04-03T12:13:40;1.42;;;0.52;;
44143;SDS011;68165;51.920;4.492;2023-04-03T12:19:03;1.00;;;0.50;;
44143;SDS011;68165;51.920;4.492;2023-04-03T12:24:29;3.20;;;0.60;;
44143;SDS011;68165;51.920;4.492;2023-04-03T12:47:54;1.43;;;0.50;;
44143;SDS011;68165;51.920;4.492;2023-04-03T12:50:24;2.17;;;0.70;;
44143;SDS011;68165;51.920;4.492;2023-04-03T12:53:06;2.40;;;0.68;;
44143;SDS011;68165;51.920;4.492;2023-04-03T12:58:15;1.20;;;0.50;;
44143;SDS011;68165;51.920;4.492;2023-04-03T13:03:26;1.27;;;0.40;;
44143;SDS011;68165;51.920;4.492;2023-04-03T13:05:57;2.47;;;0.68;;
44143;SDS011;68165;51.920;4.492;2023-04-03T13:08:27;2.70;;;0.93;;
44143;SDS011;68165;51.920;4.492;2023-04-03T13:10:58;1.42;;;0.52;;
44143;SDS011;68165;51.920;4.492;2023-04-03T13:13:26;1.70;;;0.80;;
44143;SDS011;68165;51.920;4.492;2023-04-03T13:15:52;1.48;;;0.60;;
44143;SDS011;68165;51.920;4.492;2023-04-03T13:18:29;1.77;;;0.65;;
44143;SDS011;68165;51.920;4.492;2023-04-03T13:20:59;1.40;;;0.60;;
44143;SDS011;68165;51.920;4.492;2023-04-03T13:23:30;2.10;;;0.80;;
44143;SDS011;68165;51.920;4.492;2023-04-03T13:25:56;1.63;;;0.80;;
44143;SDS011;68165;51.920;4.492;2023-04-03T13:28:25;3.88;;;0.80;;
44143;SDS011;68165;51.920;4.492;2023-04-03T13:30:56;1.55;;;0.80;;
44143;SDS011;68165;51.920;4.492;2023-04-03T13:36:40;3.78;;;0.98;;
44143;SDS011;68165;51.920;4.492;2023-04-03T13:41:38;2.92;;;0.82;;
44143;SDS011;68165;51.920;4.492;2023-04-03T13:46:48;2.95;;;0.80;;
44143;SDS011;68165;51.920;4.492;2023-04-03T13:55:51;3.60;;;1.17;;
44143;SDS011;68165;51.920;4.492;2023-04-03T13:58:20;1.80;;;0.90;;
44143;SDS011;68165;51.920;4.492;2023-04-03T14:03:28;3.50;;;0.60;;
44143;SDS011;68165;51.920;4.492;2023-04-03T14:06:08;2.45;;;0.60;;
44143;SDS011;68165;51.920;4.492;2023-04-03T14:08:37;3.90;;;1.53;;
44143;SDS011;68165;51.920;4.492;2023-04-03T14:11:03;4.68;;;1.05;;
44143;SDS011;68165;51.920;4.492;2023-04-03T14:13:29;3.15;;;0.80;;
44143;SDS011;68165;51.920;4.492;2023-04-03T14:15:56;3.65;;;0.88;;
44143;SDS011;68165;51.920;4.492;2023-04-03T14:18:22;5.53;;;0.90;;
44143;SDS011;68165;51.920;4.492;2023-04-03T14:20:47;1.45;;;0.50;;
44143;SDS011;68165;51.920;4.492;2023-04-03T14:23:15;3.65;;;0.93;;
44143;SDS011;68165;51.920;4.492;2023-04-03T14:25:41;1.90;;;0.70;;
44143;SDS011;68165;51.920;4.492;2023-04-03T14:28:15;3.15;;;0.80;;
44143;SDS011;68165;51.920;4.492;2023-04-03T14:30:43;4.45;;;1.00;;
44143;SDS011;68165;51.920;4.492;2023-04-03T14:33:17;3.05;;;0.88;;
44143;SDS011;68165;51.920;4.492;2023-04-03T14:35:44;2.85;;;1.05;;
44143;SDS011;68165;51.920;4.492;2023-04-03T14:38:20;6.07;;;1.00;;
44143;SDS011;68165;51.920;4.492;2023-04-03T14:40:48;3.45;;;1.10;;
44143;SDS011;68165;51.920;4.492;2023-04-03T14:43:14;5.45;;;1.50;;
44143;SDS011;68165;51.920;4.492;2023-04-03T14:45:40;3.20;;;1.20;;
44143;SDS011;68165;51.920;4.492;2023-04-03T14:48:06;3.03;;;1.05;;
44143;SDS011;68165;51.920;4.492;2023-04-03T14:50:41;2.47;;;0.88;;
44143;SDS011;68165;51.920;4.492;2023-04-03T14:53:06;2.80;;;0.70;;
44143;SDS011;68165;51.920;4.492;2023-04-03T14:55:32;2.28;;;0.70;;
44143;SDS011;68165;51.920;4.492;2023-04-03T14:57:58;2.63;;;0.70;;
44143;SDS011;68165;51.920;4.492;2023-04-03T15:00:23;3.08;;;0.88;;
44143;SDS011;68165;51.920;4.492;2023-04-03T15:02:49;2.08;;;0.90;;
44143;SDS011;68165;51.920;4.492;2023-04-03T15:05:15;3.83;;;1.00;;
44143;SDS011;68165;51.920;4.492;2023-04-03T15:07:48;4.03;;;1.10;;
44143;SDS011;68165;51.920;4.492;2023-04-03T15:10:21;5.53;;;1.23;;
44143;SDS011;68165;51.920;4.492;2023-04-03T15:12:47;3.08;;;0.80;;
44143;SDS011;68165;51.920;4.492;2023-04-03T15:15:13;2.67;;;1.17;;
44143;SDS011;68165;51.920;4.492;2023-04-03T15:17:41;2.97;;;0.73;;
44143;SDS011;68165;51.920;4.492;2023-04-03T15:20:14;1.45;;;0.65;;
44143;SDS011;68165;51.920;4.492;2023-04-03T15:22:42;1.83;;;0.70;;
44143;SDS011;68165;51.920;4.492;2023-04-03T15:25:08;3.53;;;0.88;;
44143;SDS011;68165;51.920;4.492;2023-04-03T15:27:34;5.05;;;1.10;;
44143;SDS011;68165;51.920;4.492;2023-04-03T15:30:00;3.45;;;1.02;;
44143;SDS011;68165;51.920;4.492;2023-04-03T15:32:25;6.40;;;1.45;;
44143;SDS011;68165;51.920;4.492;2023-04-03T15:34:51;1.88;;;0.77;;
44143;SDS011;68165;51.920;4.492;2023-04-03T15:37:16;4.63;;;0.95;;
44143;SDS011;68165;51.920;4.492;2023-04-03T15:39:42;3.58;;;1.30;;
44143;SDS011;68165;51.920;4.492;2023-04-03T15:42:07;5.30;;;1.13;;
44143;SDS011;68165;51.920;4.492;2023-04-03T15:44:34;4.55;;;1.40;;
44143;SDS011;68165;51.920;4.492;2023-04-03T15:47:00;2.40;;;0.85;;
44143;SDS011;68165;51.920;4.492;2023-04-03T15:49:26;8.63;;;1.15;;
44143;SDS011;68165;51.920;4.492;2023-04-03T15:51:52;2.97;;;0.98;;
44143;SDS011;68165;51.920;4.492;2023-04-03T15:54:18;2.47;;;0.88;;
44143;SDS011;68165;51.920;4.492;2023-04-03T15:56:43;4.30;;;1.52;;
44143;SDS011;68165;51.920;4.492;2023-04-03T15:59:09;3.70;;;1.13;;
44143;SDS011;68165;51.920;4.492;2023-04-03T16:01:35;11.88;;;1.85;;
44143;SDS011;68165;51.920;4.492;2023-04-03T16:04:01;4.28;;;1.00;;
44143;SDS011;68165;51.920;4.492;2023-04-03T16:06:27;3.53;;;1.05;;
44143;SDS011;68165;51.920;4.492;2023-04-03T16:08:55;2.97;;;1.08;;
44143;SDS011;68165;51.920;4.492;2023-04-03T16:11:23;2.72;;;0.88;;
44143;SDS011;68165;51.920;4.492;2023-04-03T16:13:49;5.18;;;1.33;;
44143;SDS011;68165;51.920;4.492;2023-04-03T16:16:14;4.30;;;1.30;;
44143;SDS011;68165;51.920;4.492;2023-04-03T16:18:40;4.20;;;1.30;;
44143;SDS011;68165;51.920;4.492;2023-04-03T16:21:06;3.15;;;1.17;;
44143;SDS011;68165;51.920;4.492;2023-04-03T16:23:32;4.95;;;1.40;;
44143;SDS011;68165;51.920;4.492;2023-04-03T16:25:58;3.72;;;1.20;;
44143;SDS011;68165;51.920;4.492;2023-04-03T16:28:24;3.95;;;0.95;;
44143;SDS011;68165;51.920;4.492;2023-04-03T16:30:50;2.90;;;1.00;;
44143;SDS011;68165;51.920;4.492;2023-04-03T16:33:16;2.70;;;0.82;;
44143;SDS011;68165;51.920;4.492;2023-04-03T16:35:41;3.03;;;1.00;;
44143;SDS011;68165;51.920;4.492;2023-04-03T16:38:09;3.30;;;0.90;;
44143;SDS011;68165;51.920;4.492;2023-04-03T16:40:35;3.45;;;1.17;;
44143;SDS011;68165;51.920;4.492;2023-04-03T16:43:01;2.47;;;0.90;;
44143;SDS011;68165;51.920;4.492;2023-04-03T16:45:29;5.25;;;1.50;;
44143;SDS011;68165;51.920;4.492;2023-04-03T16:47:55;2.15;;;0.90;;
44143;SDS011;68165;51.920;4.492;2023-04-03T16:50:20;5.40;;;1.80;;
44143;SDS011;68165;51.920;4.492;2023-04-03T16:52:46;3.33;;;0.93;;
44143;SDS011;68165;51.920;4.492;2023-04-03T16:55:14;4.60;;;1.25;;
44143;SDS011;68165;51.920;4.492;2023-04-03T16:57:39;5.68;;;1.30;;
44143;SDS011;68165;51.920;4.492;2023-04-03T17:00:05;5.00;;;1.33;;
44143;SDS011;68165;51.920;4.492;2023-04-03T17:02:32;4.75;;;1.20;;
44143;SDS011;68165;51.920;4.492;2023-04-03T17:04:57;2.72;;;0.90;;
44143;SDS011;68165;51.920;4.492;2023-04-03T17:07:26;2.30;;;1.15;;
44143;SDS011;68165;51.920;4.492;2023-04-03T17:09:58;5.20;;;1.25;;
44143;SDS011;68165;51.920;4.492;2023-04-03T17:12:23;4.72;;;1.67;;
44143;SDS011;68165;51.920;4.492;2023-04-03T17:14:51;4.55;;;1.30;;
44143;SDS011;68165;51.920;4.492;2023-04-03T17:17:21;4.45;;;1.20;;
44143;SDS011;68165;51.920;4.492;2023-04-03T17:19:49;8.88;;;1.15;;
44143;SDS011;68165;51.920;4.492;2023-04-03T17:22:14;5.10;;;0.90;;
44143;SDS011;68165;51.920;4.492;2023-04-03T17:24:41;3.83;;;1.35;;
44143;SDS011;68165;51.920;4.492;2023-04-03T17:27:07;4.40;;;1.48;;
44143;SDS011;68165;51.920;4.492;2023-04-03T17:29:32;4.82;;;1.63;;
44143;SDS011;68165;51.920;4.492;2023-04-03T17:31:57;5.28;;;1.30;;
44143;SDS011;68165;51.920;4.492;2023-04-03T17:34:23;8.05;;;1.63;;
44143;SDS011;68165;51.920;4.492;2023-04-03T17:36:48;5.07;;;1.52;;
44143;SDS011;68165;51.920;4.492;2023-04-03T17:39:13;5.05;;;1.30;;
44143;SDS011;68165;51.920;4.492;2023-04-03T17:41:39;5.90;;;1.60;;
44143;SDS011;68165;51.920;4.492;2023-04-03T17:44:04;3.75;;;1.30;;
44143;SDS011;68165;51.920;4.492;2023-04-03T17:46:30;3.35;;;1.35;;
44143;SDS011;68165;51.920;4.492;2023-04-03T17:48:56;7.72;;;1.65;;
44143;SDS011;68165;51.920;4.492;2023-04-03T17:51:23;4.20;;;1.40;;
44143;SDS011;68165;51.920;4.492;2023-04-03T17:53:50;7.22;;;1.40;;
44143;SDS011;68165;51.920;4.492;2023-04-03T17:56:16;5.55;;;1.70;;
44143;SDS011;68165;51.920;4.492;2023-04-03T17:58:44;2.92;;;1.10;;
44143;SDS011;68165;51.920;4.492;2023-04-03T18:03:36;3.22;;;1.00;;
44143;SDS011;68165;51.920;4.492;2023-04-03T18:06:05;2.22;;;1.10;;
44143;SDS011;68165;51.920;4.492;2023-04-03T18:08:35;5.53;;;1.90;;
44143;SDS011;68165;51.920;4.492;2023-04-03T18:11:02;5.63;;;1.10;;
44143;SDS011;68165;51.920;4.492;2023-04-03T18:13:28;6.50;;;1.02;;
44143;SDS011;68165;51.920;4.492;2023-04-03T18:15:53;3.08;;;1.23;;
44143;SDS011;68165;51.920;4.492;2023-04-03T18:18:19;4.00;;;1.13;;
44143;SDS011;68165;51.920;4.492;2023-04-03T18:20:44;3.53;;;1.10;;
44143;SDS011;68165;51.920;4.492;2023-04-03T18:23:10;5.03;;;1.65;;
44143;SDS011;68165;51.920;4.492;2023-04-03T18:25:36;3.88;;;1.13;;
44143;SDS011;68165;51.920;4.492;2023-04-03T18:28:02;3.13;;;1.13;;
44143;SDS011;68165;51.920;4.492;2023-04-03T18:30:30;10.35;;;1.85;;
44143;SDS011;68165;51.920;4.492;2023-04-03T18:32:58;5.05;;;1.35;;
44143;SDS011;68165;51.920;4.492;2023-04-03T18:35:23;4.35;;;1.17;;
44143;SDS011;68165;51.920;4.492;2023-04-03T18:37:49;5.07;;;1.55;;
44143;SDS011;68165;51.920;4.492;2023-04-03T18:40:14;4.82;;;1.85;;
44143;SDS011;68165;51.920;4.492;2023-04-03T18:42:40;6.45;;;2.28;;
44143;SDS011;68165;51.920;4.492;2023-04-03T18:45:06;3.67;;;1.42;;
44143;SDS011;68165;51.920;4.492;2023-04-03T18:47:34;5.75;;;1.95;;
44143;SDS011;68165;51.920;4.492;2023-04-03T18:50:00;3.90;;;1.40;;
44143;SDS011;68165;51.920;4.492;2023-04-03T18:52:27;3.85;;;1.20;;
44143;SDS011;68165;51.920;4.492;2023-04-03T18:54:53;4.72;;;1.75;;
44143;SDS011;68165;51.920;4.492;2023-04-03T18:57:18;8.63;;;1.85;;
44143;SDS011;68165;51.920;4.492;2023-04-03T18:59:43;4.63;;;1.50;;
44143;SDS011;68165;51.920;4.492;2023-04-03T19:02:09;3.42;;;1.35;;
44143;SDS011;68165;51.920;4.492;2023-04-03T19:04:38;4.97;;;1.50;;
44143;SDS011;68165;51.920;4.492;2023-04-03T19:07:03;5.32;;;1.60;;
44143;SDS011;68165;51.920;4.492;2023-04-03T19:09:30;6.57;;;1.90;;
44143;SDS011;68165;51.920;4.492;2023-04-03T19:11:56;5.45;;;1.50;;
44143;SDS011;68165;51.920;4.492;2023-04-03T19:14:22;7.85;;;2.10;;
44143;SDS011;68165;51.920;4.492;2023-04-03T19:16:47;7.78;;;1.67;;
44143;SDS011;68165;51.920;4.492;2023-04-03T19:19:12;5.63;;;1.55;;
44143;SDS011;68165;51.920;4.492;2023-04-03T19:21:38;5.03;;;1.50;;
44143;SDS011;68165;51.920;4.492;2023-04-03T19:24:06;5.68;;;2.00;;
44143;SDS011;68165;51.920;4.492;2023-04-03T19:26:35;4.90;;;1.75;;
44143;SDS011;68165;51.920;4.492;2023-04-03T19:29:00;5.22;;;1.70;;
44143;SDS011;68165;51.920;4.492;2023-04-03T19:31:26;3.70;;;1.45;;
44143;SDS011;68165;51.920;4.492;2023-04-03T19:33:51;6.78;;;1.50;;
44143;SDS011;68165;51.920;4.492;2023-04-03T19:36:18;6.40;;;2.03;;
44143;SDS011;68165;51.920;4.492;2023-04-03T19:38:44;6.07;;;2.25;;
44143;SDS011;68165;51.920;4.492;2023-04-03T19:41:29;7.53;;;1.85;;
44143;SDS011;68165;51.920;4.492;2023-04-03T19:43:56;7.60;;;1.33;;